Time;durP1;ratioP1;P1;durP2;ratioP2;P2;SDS_P1;SDS_P2;PMS_P1;PMS_P2;Temp;Humidity;BMP_temperature;BMP_pressure;BME280_temperature;BME280_humidity;BME280_pressure;Samples;Min_cycle;Max_cycle;Signal;HPM_P1;HPM_P2
2021/06/19 00:01:26;;;;;;;1999.90;999.90;;;21.70;75.40;;;;;;5051190;28;20029;-85
2021/06/19 00:03:52;;;;;;;1999.90;999.90;;;21.70;75.30;;;;;;5052687;28;20017;-84
2021/06/19 00:06:18;;;;;;;1999.90;999.90;;;21.60;75.10;;;;;;5049385;28;20483;-84
2021/06/19 00:08:43;;;;;;;1999.90;999.90;;;21.60;75.20;;;;;;5035379;28;20100;-84
2021/06/19 00:11:09;;;;;;;1999.90;999.90;;;21.50;75.20;;;;;;5037427;28;20089;-84
2021/06/19 00:13:35;;;;;;;1999.90;999.90;;;21.50;75.20;;;;;;5049792;28;20025;-84
2021/06/19 00:16:00;;;;;;;1999.90;999.90;;;21.40;75.10;;;;;;5051677;28;20024;-84
2021/06/19 00:18:26;;;;;;;1999.90;999.90;;;21.40;75.30;;;;;;5051323;28;20104;-84
2021/06/19 00:20:52;;;;;;;1999.90;999.90;;;21.40;75.40;;;;;;5045114;28;20036;-85
2021/06/19 00:23:18;;;;;;;1999.90;999.90;;;21.30;75.50;;;;;;5050416;28;20037;-85
2021/06/19 00:25:43;;;;;;;1999.90;999.90;;;21.30;75.80;;;;;;5050056;28;20028;-84
2021/06/19 00:28:09;;;;;;;1999.90;999.90;;;21.20;75.80;;;;;;5051740;28;20028;-84
2021/06/19 00:30:35;;;;;;;1999.90;999.90;;;21.20;75.90;;;;;;5050476;28;20375;-85
2021/06/19 00:33:00;;;;;;;1999.90;999.90;;;21.20;76.10;;;;;;5051936;28;20033;-85
2021/06/19 00:35:26;;;;;;;1999.90;999.90;;;21.10;76.20;;;;;;5049834;28;20124;-84
2021/06/19 00:37:52;;;;;;;1999.90;999.90;;;21.10;76.40;;;;;;5050399;28;20370;-84
2021/06/19 00:40:19;;;;;;;1999.90;999.90;;;21.00;76.50;;;;;;5051232;28;20021;-84
2021/06/19 00:43:00;;;;;;;1999.90;999.90;;;21.00;76.80;;;;;;5051906;28;20025;-85
2021/06/19 00:45:29;;;;;;;1999.90;999.90;;;21.00;76.80;;;;;;5039087;28;20012;-85
2021/06/19 00:47:55;;;;;;;1999.90;999.90;;;20.90;76.90;;;;;;5046160;28;20071;-84
2021/06/19 00:50:22;;;;;;;1999.90;999.90;;;20.90;76.90;;;;;;5048480;28;20021;-85
2021/06/19 00:52:47;;;;;;;1999.90;999.90;;;20.90;77.00;;;;;;5049698;28;20049;-85
2021/06/19 00:55:14;;;;;;;1999.90;999.90;;;20.80;77.00;;;;;;5052081;28;20076;-85
2021/06/19 00:57:40;;;;;;;1999.90;999.90;;;20.80;77.00;;;;;;5055038;28;20033;-84
2021/06/19 01:00:08;;;;;;;1999.90;999.90;;;20.80;77.10;;;;;;5054897;28;20033;-84
2021/06/19 01:02:35;;;;;;;1999.90;999.90;;;20.80;77.10;;;;;;5055548;28;20041;-84
2021/06/19 01:05:01;;;;;;;1999.90;999.90;;;20.80;77.20;;;;;;5047355;28;20029;-85
2021/06/19 01:07:27;;;;;;;1999.90;999.90;;;20.70;77.10;;;;;;5053971;28;20657;-84
2021/06/19 01:09:53;;;;;;;1999.90;999.90;;;20.70;77.20;;;;;;5045023;28;20021;-84
2021/06/19 01:12:25;;;;;;;1999.90;999.90;;;20.80;77.30;;;;;;5034757;28;20056;-84
2021/06/19 01:14:54;;;;;;;1999.90;999.90;;;20.80;77.20;;;;;;5050930;28;20036;-85
2021/06/19 01:17:22;;;;;;;1999.90;999.90;;;20.70;77.10;;;;;;5054071;28;20112;-85
2021/06/19 01:20:09;;;;;;;1999.90;999.90;;;20.70;77.10;;;;;;5051504;28;20036;-84
2021/06/19 01:22:41;;;;;;;1999.90;999.90;;;20.70;77.00;;;;;;5046607;28;20025;-85
2021/06/19 01:25:19;;;;;;;1999.90;999.90;;;20.70;77.30;;;;;;5055379;28;20435;-85
2021/06/19 01:27:48;;;;;;;1999.90;999.90;;;20.70;77.30;;;;;;5054251;28;20270;-85
2021/06/19 01:30:14;;;;;;;1999.90;999.90;;;20.70;77.30;;;;;;5055432;28;20382;-86
2021/06/19 01:32:40;;;;;;;1999.90;999.90;;;20.70;77.50;;;;;;5053909;28;20100;-86
2021/06/19 01:35:08;;;;;;;1999.90;999.90;;;20.70;77.50;;;;;;5054443;28;20109;-86
2021/06/19 01:37:34;;;;;;;1999.90;999.90;;;20.70;77.60;;;;;;5046581;28;20053;-85
2021/06/19 01:40:07;;;;;;;1999.90;999.90;;;20.70;77.70;;;;;;5049777;28;20026;-85
2021/06/19 01:42:33;;;;;;;1999.90;999.90;;;20.70;77.50;;;;;;5050827;28;20505;-87
2021/06/19 01:44:59;;;;;;;1999.90;999.90;;;20.60;77.60;;;;;;5055442;28;20028;-87
2021/06/19 01:47:27;;;;;;;1999.90;999.90;;;20.60;77.60;;;;;;5054034;28;20563;-87
2021/06/19 01:49:53;;;;;;;1999.90;999.90;;;20.60;77.70;;;;;;5054046;28;20104;-86
2021/06/19 01:52:19;;;;;;;1999.90;999.90;;;20.60;77.80;;;;;;5044208;28;20116;-87
2021/06/19 01:54:45;;;;;;;1999.90;999.90;;;20.60;77.80;;;;;;5053796;28;20075;-87
2021/06/19 01:57:10;;;;;;;1999.90;999.90;;;20.60;77.90;;;;;;5052919;28;20499;-87
2021/06/19 01:59:37;;;;;;;1999.90;999.90;;;20.60;78.00;;;;;;5053390;28;20379;-84
2021/06/19 02:02:03;;;;;;;1999.90;999.90;;;20.60;78.10;;;;;;5054336;28;20041;-84
2021/06/19 02:04:31;;;;;;;1999.90;999.90;;;20.60;78.20;;;;;;5053025;28;20028;-85
2021/06/19 02:06:58;;;;;;;1999.90;999.90;;;20.60;78.20;;;;;;5049076;28;20017;-84
2021/06/19 02:09:23;;;;;;;1999.90;999.90;;;20.60;78.20;;;;;;5048127;28;20466;-84
2021/06/19 02:11:49;;;;;;;1999.90;999.90;;;20.60;78.30;;;;;;5037902;28;20035;-83
2021/06/19 02:14:16;;;;;;;1999.90;999.90;;;20.60;78.40;;;;;;5047904;28;20131;-84
2021/06/19 02:16:43;;;;;;;1999.90;999.90;;;20.60;78.40;;;;;;5054399;28;20052;-83
2021/06/19 02:19:09;;;;;;;1999.90;999.90;;;20.60;78.40;;;;;;5052786;28;20037;-83
2021/06/19 02:21:35;;;;;;;1999.90;999.90;;;20.60;78.40;;;;;;5053567;28;20028;-84
2021/06/19 02:24:01;;;;;;;1999.90;999.90;;;20.60;78.40;;;;;;5046001;28;20215;-83
2021/06/19 02:26:27;;;;;;;1999.90;999.90;;;20.60;78.50;;;;;;5054642;28;20028;-83
2021/06/19 02:28:53;;;;;;;1999.90;999.90;;;20.60;78.50;;;;;;5052384;28;20021;-83
2021/06/19 02:31:20;;;;;;;1999.90;999.90;;;20.60;78.50;;;;;;5043682;28;20410;-83
2021/06/19 02:33:47;;;;;;;1999.90;999.90;;;20.60;78.60;;;;;;5050714;28;20021;-84
2021/06/19 02:36:14;;;;;;;1999.90;999.90;;;20.60;78.60;;;;;;5052367;28;20021;-85
2021/06/19 02:38:40;;;;;;;1999.90;999.90;;;20.70;78.70;;;;;;5053835;28;20029;-84
2021/06/19 02:41:06;;;;;;;1999.90;999.90;;;20.70;78.60;;;;;;5053099;28;20033;-84
2021/06/19 02:43:31;;;;;;;1999.90;999.90;;;20.70;78.60;;;;;;5041182;28;20028;-84
2021/06/19 02:45:59;;;;;;;1999.90;999.90;;;20.70;78.50;;;;;;5037402;28;20017;-84
2021/06/19 02:48:28;;;;;;;1999.90;999.90;;;20.80;78.50;;;;;;5050226;28;20482;-83
2021/06/19 02:50:54;;;;;;;1999.90;999.90;;;20.80;78.40;;;;;;5052693;28;20078;-85
2021/06/19 02:53:19;;;;;;;1999.90;999.90;;;20.90;78.50;;;;;;5053177;28;20025;-84
2021/06/19 02:55:45;;;;;;;1999.90;999.90;;;20.80;78.40;;;;;;5048490;28;20036;-84
2021/06/19 02:58:13;;;;;;;1999.90;999.90;;;20.90;78.30;;;;;;5052242;28;20483;-85
2021/06/19 03:00:40;;;;;;;1999.90;999.90;;;21.00;78.20;;;;;;5053876;28;20038;-84
2021/06/19 03:03:07;;;;;;;1999.90;999.90;;;21.00;78.10;;;;;;5053409;28;20036;-84
2021/06/19 03:05:34;;;;;;;1999.90;999.90;;;21.00;77.90;;;;;;5049907;28;20028;-84
2021/06/19 03:08:00;;;;;;;1999.90;999.90;;;21.00;77.80;;;;;;5053850;28;20021;-85
2021/06/19 03:10:29;;;;;;;1999.90;999.90;;;21.00;77.80;;;;;;5044419;28;20017;-85
2021/06/19 03:12:55;;;;;;;1999.90;999.90;;;21.00;77.90;;;;;;5046238;28;20021;-85
2021/06/19 03:15:21;;;;;;;1999.90;999.90;;;21.00;77.90;;;;;;5051901;28;20025;-85
2021/06/19 03:17:48;;;;;;;1999.90;999.90;;;21.10;78.10;;;;;;5052985;28;20079;-86
2021/06/19 03:20:15;;;;;;;1999.90;999.90;;;21.10;78.10;;;;;;5044824;28;20017;-85
2021/06/19 03:22:49;;;;;;;1999.90;999.90;;;21.10;78.00;;;;;;5052360;28;20025;-84
2021/06/19 03:25:18;;;;;;;1999.90;999.90;;;21.20;77.90;;;;;;5050384;28;20063;-86
2021/06/19 03:27:44;;;;;;;1999.90;999.90;;;21.20;78.00;;;;;;5047457;28;20411;-86
2021/06/19 03:30:10;;;;;;;1999.90;999.90;;;21.30;78.20;;;;;;5051989;28;20024;-85
2021/06/19 03:32:38;;;;;;;1999.90;999.90;;;21.30;78.20;;;;;;5051745;28;20474;-86
2021/06/19 03:35:04;;;;;;;1999.90;999.90;;;21.40;78.20;;;;;;5053715;28;20112;-87
2021/06/19 03:37:30;;;;;;;1999.90;999.90;;;21.60;78.10;;;;;;5052010;28;20028;-86
2021/06/19 03:39:56;;;;;;;1999.90;999.90;;;21.70;77.90;;;;;;5048671;28;20017;-87
2021/06/19 03:42:22;;;;;;;1999.90;999.90;;;21.80;77.80;;;;;;5051056;28;20492;-86
2021/06/19 03:44:47;;;;;;;1999.90;999.90;;;21.90;77.70;;;;;;5051836;28;20017;-86
2021/06/19 03:47:13;;;;;;;1999.90;999.90;;;22.00;77.50;;;;;;5049132;28;20025;-87
2021/06/19 03:49:41;;;;;;;1999.90;999.90;;;22.20;77.10;;;;;;5049598;28;20112;-86
2021/06/19 03:52:07;;;;;;;1999.90;999.90;;;22.30;76.50;;;;;;5048195;28;20063;-85
2021/06/19 03:54:37;;;;;;;1999.90;999.90;;;22.40;76.20;;;;;;5049224;28;20478;-84
2021/06/19 03:57:05;;;;;;;1999.90;999.90;;;22.50;75.40;;;;;;5052214;28;20047;-87
2021/06/19 03:59:31;;;;;;;1999.90;999.90;;;22.60;75.10;;;;;;5051597;28;20078;-87
2021/06/19 04:01:56;;;;;;;1999.90;999.90;;;22.60;75.20;;;;;;5052128;28;20025;-86
2021/06/19 04:04:22;;;;;;;1999.90;999.90;;;22.80;74.90;;;;;;5050821;28;20078;-85
2021/06/19 04:06:48;;;;;;;1999.90;999.90;;;22.90;74.70;;;;;;5050313;28;20025;-86
2021/06/19 04:09:13;;;;;;;1999.90;999.90;;;23.00;74.40;;;;;;5047762;28;20025;-86
2021/06/19 04:11:39;;;;;;;1999.90;999.90;;;23.10;74.20;;;;;;5049249;28;20063;-87
2021/06/19 04:14:05;;;;;;;1999.90;999.90;;;23.10;73.70;;;;;;5045304;28;20029;-89
2021/06/19 04:16:30;;;;;;;1999.90;999.90;;;23.20;73.50;;;;;;5050639;28;20389;-88
2021/06/19 04:18:56;;;;;;;1999.90;999.90;;;23.30;73.60;;;;;;5045173;28;20029;-87
2021/06/19 04:21:22;;;;;;;1999.90;999.90;;;23.40;73.10;;;;;;5047149;28;20096;-87
2021/06/19 04:23:47;;;;;;;1999.90;999.90;;;23.40;72.60;;;;;;5050772;28;20099;-87
2021/06/19 04:26:13;;;;;;;1999.90;999.90;;;23.40;72.20;;;;;;5040878;28;20034;-87
2021/06/19 04:28:39;;;;;;;1999.90;999.90;;;23.40;72.20;;;;;;5052323;28;20028;-87
2021/06/19 04:31:05;;;;;;;1999.90;999.90;;;23.40;72.40;;;;;;5051043;28;20037;-87
2021/06/19 04:33:30;;;;;;;1999.90;999.90;;;23.50;72.40;;;;;;5051689;28;20021;-87
2021/06/19 04:35:56;;;;;;;1999.90;999.90;;;23.50;72.20;;;;;;5049910;28;20032;-87
2021/06/19 04:38:23;;;;;;;1999.90;999.90;;;23.50;72.10;;;;;;5050468;28;20029;-87
2021/06/19 04:43:14;;;;;;;1999.90;999.90;;;23.40;71.90;;;;;;5051170;28;20029;-87
2021/06/19 04:45:40;;;;;;;1999.90;999.90;;;23.40;72.10;;;;;;5052556;28;20052;-86
2021/06/19 04:48:08;;;;;;;1999.90;999.90;;;23.40;72.90;;;;;;5051464;28;20044;-89
2021/06/19 04:50:36;;;;;;;1999.90;999.90;;;23.40;72.50;;;;;;5050191;28;20087;-87
2021/06/19 04:53:03;;;;;;;1999.90;999.90;;;23.40;72.50;;;;;;5051661;28;20025;-87
2021/06/19 04:55:30;;;;;;;1999.90;999.90;;;23.40;73.10;;;;;;5050620;28;20025;-86
2021/06/19 04:57:57;;;;;;;1999.90;999.90;;;23.50;72.40;;;;;;5052005;28;20044;-87
2021/06/19 05:00:25;;;;;;;1999.90;999.90;;;23.50;72.20;;;;;;5052689;28;20022;-86
2021/06/19 05:02:52;;;;;;;1999.90;999.90;;;23.60;72.20;;;;;;5041857;28;20509;-86
2021/06/19 05:05:17;;;;;;;1999.90;999.90;;;23.60;72.10;;;;;;5058402;28;20017;-86
2021/06/19 05:07:43;;;;;;;1999.90;999.90;;;23.60;72.30;;;;;;5047795;28;20140;-85
2021/06/19 05:10:10;;;;;;;1999.90;999.90;;;23.50;72.30;;;;;;5044031;28;20036;-87
2021/06/19 05:12:44;;;;;;;1999.90;999.90;;;23.60;72.40;;;;;;5043846;28;20026;-88
2021/06/19 05:15:12;;;;;;;1999.90;999.90;;;23.60;72.40;;;;;;5051973;28;20504;-87
2021/06/19 05:17:39;;;;;;;1999.90;999.90;;;23.70;72.40;;;;;;5046308;28;20482;-87
2021/06/19 05:20:06;;;;;;;1999.90;999.90;;;23.70;72.90;;;;;;5049517;28;20033;-87
2021/06/19 05:22:31;;;;;;;1999.90;999.90;;;23.70;72.20;;;;;;5029629;28;20021;-86
2021/06/19 05:24:57;;;;;;;1999.90;999.90;;;23.80;72.30;;;;;;5053839;28;20413;-87
2021/06/19 05:27:23;;;;;;;1999.90;999.90;;;23.80;72.10;;;;;;5051606;28;20029;-87
2021/06/19 05:29:49;;;;;;;1999.90;999.90;;;23.90;72.10;;;;;;5047350;28;20075;-88
2021/06/19 05:32:15;;;;;;;1999.90;999.90;;;23.90;72.20;;;;;;5051349;28;20037;-88
2021/06/19 05:34:41;;;;;;;1999.90;999.90;;;24.00;72.00;;;;;;5049872;28;20032;-88
2021/06/19 05:37:08;;;;;;;1999.90;999.90;;;24.10;72.00;;;;;;5051350;28;20017;-85
2021/06/19 05:39:34;;;;;;;1999.90;999.90;;;24.10;71.70;;;;;;5051117;28;20048;-84
2021/06/19 05:42:00;;;;;;;1999.90;999.90;;;24.10;71.50;;;;;;5048229;28;20033;-85
2021/06/19 05:44:26;;;;;;;1999.90;999.90;;;24.10;71.50;;;;;;5049222;28;20080;-84
2021/06/19 05:46:51;;;;;;;1999.90;999.90;;;24.20;71.40;;;;;;5050877;28;20035;-86
2021/06/19 05:49:17;;;;;;;1999.90;999.90;;;24.20;71.20;;;;;;5053865;28;20017;-84
2021/06/19 05:51:43;;;;;;;1999.90;999.90;;;24.20;71.00;;;;;;5054551;28;20032;-85
2021/06/19 05:54:08;;;;;;;1999.90;999.90;;;24.30;71.00;;;;;;5053332;28;20028;-85
2021/06/19 05:56:34;;;;;;;1999.90;999.90;;;24.30;71.00;;;;;;5055366;28;20025;-86
2021/06/19 05:59:00;;;;;;;1999.90;999.90;;;24.20;70.90;;;;;;5033469;28;20033;-86
2021/06/19 06:01:30;;;;;;;1999.90;999.90;;;24.20;71.00;;;;;;5031382;28;20030;-87
2021/06/19 06:03:56;;;;;;;1999.90;999.90;;;24.20;71.10;;;;;;5024519;28;20018;-85
2021/06/19 06:06:21;;;;;;;1999.90;999.90;;;24.30;71.10;;;;;;5033227;28;20459;-86
2021/06/19 06:08:47;;;;;;;1999.90;999.90;;;24.30;71.20;;;;;;5032856;28;20052;-87
2021/06/19 06:11:13;;;;;;;1999.90;999.90;;;24.30;71.10;;;;;;5030168;28;20067;-87
2021/06/19 06:13:39;;;;;;;1999.90;999.90;;;24.30;71.00;;;;;;5030960;28;20053;-86
2021/06/19 06:16:05;;;;;;;1999.90;999.90;;;24.30;71.00;;;;;;5026402;28;20056;-87
2021/06/19 06:18:31;;;;;;;1999.90;999.90;;;24.40;71.20;;;;;;5032261;28;20037;-86
2021/06/19 06:20:57;;;;;;;1999.90;999.90;;;24.40;71.10;;;;;;5022960;28;20029;-85
2021/06/19 06:23:23;;;;;;;1999.90;999.90;;;24.50;70.90;;;;;;5029997;28;20026;-85
2021/06/19 06:25:50;;;;;;;1999.90;999.90;;;24.50;71.10;;;;;;5025555;28;20033;-85
2021/06/19 06:28:17;;;;;;;1999.90;999.90;;;24.60;70.80;;;;;;5033526;28;20017;-85
2021/06/19 06:30:43;;;;;;;1999.90;999.90;;;24.70;70.60;;;;;;5031842;28;20052;-86
2021/06/19 06:33:08;;;;;;;1999.90;999.90;;;24.70;70.10;;;;;;5035132;28;20035;-86
2021/06/19 06:35:34;;;;;;;1999.90;999.90;;;24.70;70.10;;;;;;5033202;28;20067;-86
2021/06/19 06:38:00;;;;;;;1999.90;999.90;;;24.80;70.40;;;;;;5028552;28;20041;-85
2021/06/19 06:40:26;;;;;;;1999.90;999.90;;;24.80;70.30;;;;;;5021926;28;20087;-86
2021/06/19 06:42:52;;;;;;;1999.90;999.90;;;24.90;70.10;;;;;;5031762;28;20091;-86
2021/06/19 06:45:18;;;;;;;1999.90;999.90;;;24.90;70.00;;;;;;5033187;28;20829;-87
2021/06/19 06:47:43;;;;;;;1999.90;999.90;;;25.00;69.70;;;;;;5026719;28;20033;-84
2021/06/19 06:50:10;;;;;;;1999.90;999.90;;;25.10;69.10;;;;;;5030011;28;20025;-84
2021/06/19 06:52:36;;;;;;;1999.90;999.90;;;25.10;68.90;;;;;;5028914;28;20052;-85
2021/06/19 06:55:04;;;;;;;1999.90;999.90;;;25.10;68.80;;;;;;5030145;28;20439;-85
2021/06/19 06:57:30;;;;;;;1999.90;999.90;;;25.20;68.90;;;;;;5033457;28;20044;-86
2021/06/19 06:59:56;;;;;;;1999.90;999.90;;;25.20;69.10;;;;;;5059089;28;20022;-85
2021/06/19 07:02:22;;;;;;;1999.90;999.90;;;25.30;69.00;;;;;;5051802;28;20100;-85
2021/06/19 07:04:50;;;;;;;1999.90;999.90;;;25.40;68.70;;;;;;5051203;28;20053;-85
2021/06/19 07:07:16;;;;;;;1999.90;999.90;;;25.40;68.70;;;;;;5051648;28;20013;-85
2021/06/19 07:09:42;;;;;;;1999.90;999.90;;;25.50;68.40;;;;;;5051613;28;20477;-83
2021/06/19 07:12:09;;;;;;;1999.90;999.90;;;25.30;67.90;;;;;;5050522;28;20029;-85
2021/06/19 07:14:35;;;;;;;1999.90;999.90;;;25.30;68.10;;;;;;5039495;28;20029;-86
2021/06/19 07:17:00;;;;;;;1999.90;999.90;;;25.30;68.40;;;;;;5053176;28;20044;-84
2021/06/19 07:19:27;;;;;;;1999.90;999.90;;;25.30;68.50;;;;;;5054145;28;20481;-85
2021/06/19 07:21:53;;;;;;;1999.90;999.90;;;25.40;68.60;;;;;;5048269;28;20068;-83
2021/06/19 07:24:18;;;;;;;1999.90;999.90;;;25.40;68.40;;;;;;5042203;28;20033;-85
2021/06/19 07:26:44;;;;;;;1999.90;999.90;;;25.50;68.60;;;;;;5055389;28;20105;-85
2021/06/19 07:29:10;;;;;;;1999.90;999.90;;;25.60;68.30;;;;;;5045945;28;20024;-84
2021/06/19 07:31:36;;;;;;;1999.90;999.90;;;25.70;68.30;;;;;;5036592;28;20034;-84
2021/06/19 07:34:03;;;;;;;1999.90;999.90;;;25.80;67.80;;;;;;5044365;28;20119;-86
2021/06/19 07:36:29;;;;;;;1999.90;999.90;;;25.90;67.80;;;;;;5043130;28;20078;-85
2021/06/19 07:38:54;;;;;;;1999.90;999.90;;;26.00;67.30;;;;;;5049516;28;20040;-85
2021/06/19 07:41:20;;;;;;;1999.90;999.90;;;26.20;67.90;;;;;;5052519;28;20040;-85
2021/06/19 07:43:46;;;;;;;1999.90;999.90;;;26.30;66.60;;;;;;5048548;28;20459;-84
2021/06/19 07:46:12;;;;;;;1999.90;999.90;;;26.30;66.00;;;;;;5049247;28;20085;-84
2021/06/19 07:48:37;;;;;;;1999.90;999.90;;;26.40;66.10;;;;;;5047764;28;20029;-85
2021/06/19 07:51:03;;;;;;;1999.90;999.90;;;26.40;66.30;;;;;;5046777;28;20032;-83
2021/06/19 07:53:32;;;;;;;1999.90;999.90;;;26.50;66.30;;;;;;5047891;28;20029;-83
2021/06/19 07:55:58;;;;;;;1999.90;999.90;;;26.60;66.20;;;;;;5042187;28;20041;-86
2021/06/19 07:58:23;;;;;;;1999.90;999.90;;;26.70;66.20;;;;;;5051384;28;20044;-84
2021/06/19 08:00:49;;;;;;;1999.90;999.90;;;26.80;65.70;;;;;;5051475;28;20037;-85
2021/06/19 08:03:15;;;;;;;1999.90;999.90;;;26.80;65.00;;;;;;5048599;28;20095;-84
2021/06/19 08:05:41;;;;;;;1999.90;999.90;;;26.70;65.00;;;;;;5046464;28;20036;-84
2021/06/19 08:08:06;;;;;;;1999.90;999.90;;;26.70;65.20;;;;;;5049175;28;20387;-85
2021/06/19 08:10:32;;;;;;;1999.90;999.90;;;26.70;65.60;;;;;;5048146;28;20032;-85
2021/06/19 08:12:58;;;;;;;1999.90;999.90;;;26.70;65.40;;;;;;5049726;28;20382;-85
2021/06/19 08:15:24;;;;;;;1999.90;999.90;;;26.70;65.30;;;;;;5043316;28;20104;-84
2021/06/19 08:17:50;;;;;;;1999.90;999.90;;;26.80;65.40;;;;;;5047908;28;20017;-83
2021/06/19 08:20:16;;;;;;;1999.90;999.90;;;26.70;65.30;;;;;;5050225;28;20471;-83
2021/06/19 08:22:42;;;;;;;1999.90;999.90;;;26.80;65.70;;;;;;5043824;28;20027;-84
2021/06/19 08:25:08;;;;;;;1999.90;999.90;;;26.90;65.70;;;;;;5052112;28;20052;-84
2021/06/19 08:27:34;;;;;;;1999.90;999.90;;;26.90;65.40;;;;;;5048156;28;20063;-83
2021/06/19 08:29:59;;;;;;;1999.90;999.90;;;26.90;65.30;;;;;;5039287;28;20025;-83
2021/06/19 08:32:25;;;;;;;1999.90;999.90;;;26.90;65.20;;;;;;5040361;28;20061;-84
2021/06/19 08:34:51;;;;;;;1999.90;999.90;;;27.00;65.30;;;;;;5048060;28;20083;-85
2021/06/19 08:37:17;;;;;;;1999.90;999.90;;;27.00;65.10;;;;;;5049935;28;20083;-85
2021/06/19 08:39:43;;;;;;;1999.90;999.90;;;27.00;65.00;;;;;;5052075;28;20088;-83
2021/06/19 08:42:09;;;;;;;1999.90;999.90;;;27.10;65.20;;;;;;5049896;28;20033;-83
2021/06/19 08:44:35;;;;;;;1999.90;999.90;;;27.20;65.20;;;;;;5051887;28;20036;-83
2021/06/19 08:47:01;;;;;;;1999.90;999.90;;;27.20;65.00;;;;;;5053153;28;20021;-82
2021/06/19 08:49:28;;;;;;;1999.90;999.90;;;27.40;64.80;;;;;;5050882;28;20045;-83
2021/06/19 08:51:57;;;;;;;1999.90;999.90;;;27.40;64.70;;;;;;5050999;28;20052;-83
2021/06/19 08:54:24;;;;;;;1999.90;999.90;;;27.60;63.80;;;;;;5048395;28;20089;-82
2021/06/19 08:56:50;;;;;;;1999.90;999.90;;;27.70;63.40;;;;;;5044990;28;20064;-84
2021/06/19 08:59:17;;;;;;;1999.90;999.90;;;27.80;63.30;;;;;;5050672;28;20478;-83
2021/06/19 09:01:43;;;;;;;1999.90;999.90;;;27.70;63.10;;;;;;5048780;28;20048;-83
2021/06/19 09:04:10;;;;;;;1999.90;999.90;;;27.70;63.40;;;;;;5048903;28;20029;-83
2021/06/19 09:06:44;;;;;;;1999.90;999.90;;;27.90;63.00;;;;;;5042918;28;20026;-83
2021/06/19 09:09:15;;;;;;;1999.90;999.90;;;28.00;63.10;;;;;;5042114;28;20036;-82
2021/06/19 09:11:52;;;;;;;1999.90;999.90;;;28.00;62.90;;;;;;5053372;28;20021;-83
2021/06/19 09:14:27;;;;;;;1999.90;999.90;;;28.00;62.70;;;;;;5047371;28;21033;-84
2021/06/19 09:17:03;;;;;;;1999.90;999.90;;;28.00;63.50;;;;;;5046875;28;20025;-83
2021/06/19 09:19:31;;;;;;;1999.90;999.90;;;28.00;63.10;;;;;;5055154;28;20055;-83
2021/06/19 09:22:22;;;;;;;1999.90;999.90;;;28.00;63.30;;;;;;5053874;28;20033;-83
2021/06/19 09:24:58;;;;;;;1999.90;999.90;;;28.10;63.60;;;;;;5053352;28;20068;-84
2021/06/19 09:27:53;;;;;;;1999.90;999.90;;;28.10;63.30;;;;;;5052823;28;20482;-84
2021/06/19 09:30:21;;;;;;;1999.90;999.90;;;28.10;63.00;;;;;;5052512;28;20128;-84
2021/06/19 09:32:48;;;;;;;1999.90;999.90;;;28.20;63.10;;;;;;5041028;28;20053;-84
2021/06/19 09:35:40;;;;;;;1999.90;999.90;;;28.20;63.40;;;;;;5053604;28;20035;-84
2021/06/19 09:38:09;;;;;;;1999.90;999.90;;;28.20;62.70;;;;;;5047095;28;20029;-84
2021/06/19 09:40:40;;;;;;;1999.90;999.90;;;28.20;63.40;;;;;;5053855;28;20067;-84
2021/06/19 09:43:27;;;;;;;1999.90;999.90;;;28.30;62.90;;;;;;5053440;28;20061;-84
2021/06/19 09:46:00;;;;;;;1999.90;999.90;;;28.30;63.60;;;;;;5050281;28;20017;-84
2021/06/19 09:48:31;;;;;;;1999.90;999.90;;;28.40;62.80;;;;;;5053914;28;20024;-84
2021/06/19 09:51:14;;;;;;;1999.90;999.90;;;28.40;62.50;;;;;;5053399;28;20579;-84
2021/06/19 09:53:42;;;;;;;1999.90;999.90;;;28.50;63.00;;;;;;5052908;28;20100;-84
2021/06/19 09:56:10;;;;;;;1999.90;999.90;;;28.50;63.00;;;;;;5052859;28;20031;-84
2021/06/19 09:58:41;;;;;;;1999.90;999.90;;;28.60;62.20;;;;;;5046043;28;20052;-83
2021/06/19 10:01:07;;;;;;;1999.90;999.90;;;28.50;62.10;;;;;;5047357;28;20028;-84
2021/06/19 10:03:56;;;;;;;1999.90;999.90;;;28.40;62.00;;;;;;5068747;28;20028;-85
2021/06/19 10:06:22;;;;;;;1999.90;999.90;;;28.30;61.90;;;;;;5053731;28;20024;-83
2021/06/19 10:08:49;;;;;;;1999.90;999.90;;;28.20;62.20;;;;;;5054304;28;20028;-83
2021/06/19 10:11:16;;;;;;;1999.90;999.90;;;28.20;62.20;;;;;;5055481;28;20028;-84
2021/06/19 10:13:44;;;;;;;1999.90;999.90;;;28.10;62.30;;;;;;5053432;28;20028;-84
2021/06/19 10:16:16;;;;;;;1999.90;999.90;;;28.30;61.40;;;;;;5051451;28;20036;-84
2021/06/19 10:18:43;;;;;;;1999.90;999.90;;;28.40;60.80;;;;;;5051625;28;20049;-84
2021/06/19 10:21:11;;;;;;;1999.90;999.90;;;28.60;61.10;;;;;;5051443;28;20434;-84
2021/06/19 10:23:37;;;;;;;1999.90;999.90;;;29.10;61.30;;;;;;5049000;28;20429;-84
2021/06/19 10:26:03;;;;;;;1999.90;999.90;;;29.40;59.60;;;;;;5054914;28;20619;-84
2021/06/19 10:28:31;;;;;;;1999.90;999.90;;;29.60;58.60;;;;;;5052071;28;20053;-86
2021/06/19 10:30:58;;;;;;;1999.90;999.90;;;29.70;57.80;;;;;;5037172;28;20037;-83
2021/06/19 10:33:32;;;;;;;1999.90;999.90;;;29.70;57.60;;;;;;5040856;28;20030;-84
2021/06/19 10:36:03;;;;;;;1999.90;999.90;;;29.60;57.70;;;;;;5054883;28;20083;-84
2021/06/19 10:38:49;;;;;;;1999.90;999.90;;;29.60;57.70;;;;;;5055635;28;20534;-84
2021/06/19 10:41:17;;;;;;;1999.90;999.90;;;29.70;57.70;;;;;;5067838;28;20028;-84
2021/06/19 10:43:47;;;;;;;1999.90;999.90;;;29.80;57.20;;;;;;5057362;28;20410;-84
2021/06/19 10:46:39;;;;;;;1999.90;999.90;;;29.90;56.60;;;;;;5054997;28;20024;-83
2021/06/19 10:49:20;;;;;;;1999.90;999.90;;;30.00;56.90;;;;;;5046374;28;20152;-82
2021/06/19 10:51:47;;;;;;;1999.90;999.90;;;30.20;56.30;;;;;;5054447;28;20083;-83
2021/06/19 10:54:16;;;;;;;1999.90;999.90;;;30.10;56.10;;;;;;5045442;28;20063;-83
2021/06/19 10:56:56;;;;;;;1999.90;999.90;;;30.20;56.30;;;;;;5051877;28;20116;-84
2021/06/19 10:59:28;;;;;;;1999.90;999.90;;;30.20;56.10;;;;;;5041911;28;20034;-83
2021/06/19 11:02:04;;;;;;;1999.90;999.90;;;30.30;55.80;;;;;;5048873;28;20108;-82
2021/06/19 11:04:38;;;;;;;1999.90;999.90;;;30.30;55.50;;;;;;5047340;28;20034;-83
2021/06/19 11:07:05;;;;;;;1999.90;999.90;;;30.30;55.40;;;;;;5053659;28;20087;-83
2021/06/19 11:09:42;;;;;;;1999.90;999.90;;;30.30;55.30;;;;;;5051242;28;20033;-83
2021/06/19 11:12:30;;;;;;;1999.90;999.90;;;30.40;55.00;;;;;;5052085;28;20055;-84
2021/06/19 11:15:08;;;;;;;1999.90;999.90;;;30.50;54.90;;;;;;5038470;28;20108;-85
2021/06/19 11:17:33;;;;;;;1999.90;999.90;;;30.40;55.00;;;;;;5040082;28;20036;-84
2021/06/19 11:20:20;;;;;;;1999.90;999.90;;;30.40;55.20;;;;;;5047850;28;20347;-84
2021/06/19 11:23:03;;;;;;;1999.90;999.90;;;30.40;55.40;;;;;;5042853;28;20021;-84
2021/06/19 11:25:31;;;;;;;1999.90;999.90;;;30.50;55.10;;;;;;5052174;28;20044;-83
2021/06/19 11:28:22;;;;;;;1999.90;999.90;;;30.70;54.90;;;;;;5054343;28;20021;-83
2021/06/19 11:31:18;;;;;;;1999.90;999.90;;;30.80;54.50;;;;;;5047816;28;20027;-83
2021/06/19 11:33:44;;;;;;;1999.90;999.90;;;30.90;54.90;;;;;;5048890;28;20359;-84
2021/06/19 11:36:14;;;;;;;1999.90;999.90;;;31.00;54.20;;;;;;5047659;28;20094;-82
2021/06/19 11:39:08;;;;;;;1999.90;999.90;;;31.00;54.00;;;;;;5045911;28;20036;-85
2021/06/19 11:41:38;;;;;;;1999.90;999.90;;;31.00;53.50;;;;;;5046188;28;20051;-84
2021/06/19 11:44:12;;;;;;;1999.90;999.90;;;30.90;54.00;;;;;;5045335;28;20025;-84
2021/06/19 11:46:38;;;;;;;1999.90;999.90;;;30.80;54.10;;;;;;5051321;28;20662;-82
2021/06/19 11:49:08;;;;;;;1999.90;999.90;;;30.70;53.80;;;;;;5046857;28;20116;-84
2021/06/19 11:51:35;;;;;;;1999.90;999.90;;;30.60;53.80;;;;;;5051274;28;20036;-83
2021/06/19 11:54:05;;;;;;;1999.90;999.90;;;30.60;53.60;;;;;;5046199;28;20478;-83
2021/06/19 11:56:31;;;;;;;1999.90;999.90;;;30.70;53.70;;;;;;5054398;28;20021;-84
2021/06/19 11:59:04;;;;;;;1999.90;999.90;;;30.70;53.60;;;;;;5050060;28;20120;-84
2021/06/19 12:01:39;;;;;;;1999.90;999.90;;;30.80;53.80;;;;;;5068475;28;20133;-83
2021/06/19 12:04:11;;;;;;;1999.90;999.90;;;30.90;53.90;;;;;;5053438;28;20025;-84
2021/06/19 12:06:47;;;;;;;1999.90;999.90;;;30.80;53.40;;;;;;5050975;28;20513;-85